sensor_id;sensor_type;location;lat;lon;timestamp;pressure;altitude;pressure_sealevel;temperature;humidity
23574;BME280;11965;53.640;10.050;2022-11-15T00:00:06;100993.47;;;4.70;100.00
23574;BME280;11965;53.640;10.050;2022-11-15T00:02:54;100985.69;;;4.65;100.00
23574;BME280;11965;53.640;10.050;2022-11-15T00:05:39;100988.31;;;4.57;100.00
23574;BME280;11965;53.640;10.050;2022-11-15T00:08:23;100990.47;;;4.54;100.00
23574;BME280;11965;53.640;10.050;2022-11-15T00:11:10;100994.97;;;4.55;100.00
23574;BME280;11965;53.640;10.050;2022-11-15T00:13:56;100998.16;;;4.50;100.00
23574;BME280;11965;53.640;10.050;2022-11-15T00:16:40;100991.41;;;4.45;100.00
23574;BME280;11965;53.640;10.050;2022-11-15T00:19:25;100995.00;;;4.45;100.00
23574;BME280;11965;53.640;10.050;2022-11-15T00:22:09;100988.53;;;4.46;100.00
23574;BME280;11965;53.640;10.050;2022-11-15T00:24:53;100988.66;;;4.45;100.00
23574;BME280;11965;53.640;10.050;2022-11-15T00:27:37;100985.78;;;4.46;100.00
23574;BME280;11965;53.640;10.050;2022-11-15T00:30:22;100985.19;;;4.42;100.00
23574;BME280;11965;53.640;10.050;2022-11-15T00:33:06;100988.41;;;4.38;100.00
23574;BME280;11965;53.640;10.050;2022-11-15T00:35:51;100992.31;;;4.35;100.00
23574;BME280;11965;53.640;10.050;2022-11-15T00:38:37;100998.81;;;4.34;100.00
23574;BME280;11965;53.640;10.050;2022-11-15T00:41:21;100994.19;;;4.35;100.00
23574;BME280;11965;53.640;10.050;2022-11-15T00:44:06;100993.28;;;4.44;100.00
23574;BME280;11965;53.640;10.050;2022-11-15T00:46:50;100993.53;;;4.51;100.00
23574;BME280;11965;53.640;10.050;2022-11-15T00:49:34;100991.38;;;4.54;100.00
23574;BME280;11965;53.640;10.050;2022-11-15T00:52:18;100981.06;;;4.56;100.00
23574;BME280;11965;53.640;10.050;2022-11-15T00:55:03;100985.41;;;4.59;100.00
23574;BME280;11965;53.640;10.050;2022-11-15T00:57:47;100984.00;;;4.55;100.00
23574;BME280;11965;53.640;10.050;2022-11-15T01:00:31;100992.25;;;4.45;100.00
23574;BME280;11965;53.640;10.050;2022-11-15T01:03:15;100990.28;;;4.37;100.00
23574;BME280;11965;53.640;10.050;2022-11-15T01:06:00;100995.34;;;4.32;100.00
23574;BME280;11965;53.640;10.050;2022-11-15T01:08:44;100984.97;;;4.26;100.00
23574;BME280;11965;53.640;10.050;2022-11-15T01:11:28;100984.72;;;4.19;100.00
23574;BME280;11965;53.640;10.050;2022-11-15T01:14:13;100979.69;;;4.15;100.00
23574;BME280;11965;53.640;10.050;2022-11-15T01:16:57;100980.72;;;4.14;100.00
23574;BME280;11965;53.640;10.050;2022-11-15T01:19:41;100977.38;;;4.20;100.00
23574;BME280;11965;53.640;10.050;2022-11-15T01:22:26;100977.47;;;4.28;100.00
23574;BME280;11965;53.640;10.050;2022-11-15T01:25:10;100967.03;;;4.32;100.00
23574;BME280;11965;53.640;10.050;2022-11-15T01:27:54;100959.13;;;4.29;100.00
23574;BME280;11965;53.640;10.050;2022-11-15T01:30:38;100966.38;;;4.20;100.00
23574;BME280;11965;53.640;10.050;2022-11-15T01:33:22;100961.22;;;4.17;100.00
23574;BME280;11965;53.640;10.050;2022-11-15T01:36:10;100965.97;;;4.15;100.00
23574;BME280;11965;53.640;10.050;2022-11-15T01:38:57;100967.44;;;4.09;100.00
23574;BME280;11965;53.640;10.050;2022-11-15T01:41:41;100959.66;;;4.05;100.00
23574;BME280;11965;53.640;10.050;2022-11-15T01:44:39;100954.34;;;4.03;100.00
23574;BME280;11965;53.640;10.050;2022-11-15T01:47:34;100960.09;;;4.00;100.00
23574;BME280;11965;53.640;10.050;2022-11-15T01:50:26;100946.84;;;3.95;100.00
23574;BME280;11965;53.640;10.050;2022-11-15T01:53:12;100948.44;;;3.88;100.00
23574;BME280;11965;53.640;10.050;2022-11-15T01:55:57;100950.75;;;3.83;100.00
23574;BME280;11965;53.640;10.050;2022-11-15T01:58:44;100956.00;;;3.76;100.00
23574;BME280;11965;53.640;10.050;2022-11-15T02:01:31;100960.88;;;3.73;100.00
23574;BME280;11965;53.640;10.050;2022-11-15T02:04:22;100938.09;;;3.72;100.00
23574;BME280;11965;53.640;10.050;2022-11-15T02:07:11;100933.06;;;3.68;100.00
23574;BME280;11965;53.640;10.050;2022-11-15T02:10:12;100931.47;;;3.65;100.00
23574;BME280;11965;53.640;10.050;2022-11-15T02:13:00;100925.44;;;3.62;100.00
23574;BME280;11965;53.640;10.050;2022-11-15T02:19:11;100930.94;;;3.52;100.00
23574;BME280;11965;53.640;10.050;2022-11-15T02:28:32;100927.19;;;3.43;100.00
23574;BME280;11965;53.640;10.050;2022-11-15T02:31:28;100928.50;;;3.39;100.00
23574;BME280;11965;53.640;10.050;2022-11-15T02:34:34;100925.78;;;3.29;100.00
23574;BME280;11965;53.640;10.050;2022-11-15T02:43:51;100912.22;;;3.18;100.00
23574;BME280;11965;53.640;10.050;2022-11-15T02:46:52;100912.38;;;3.17;100.00
23574;BME280;11965;53.640;10.050;2022-11-15T02:50:05;100910.94;;;3.13;100.00
23574;BME280;11965;53.640;10.050;2022-11-15T02:52:51;100915.69;;;3.10;100.00
23574;BME280;11965;53.640;10.050;2022-11-15T02:55:50;100911.09;;;3.01;100.00
23574;BME280;11965;53.640;10.050;2022-11-15T03:02:01;100907.63;;;2.90;100.00
23574;BME280;11965;53.640;10.050;2022-11-15T03:05:14;100907.03;;;2.86;100.00
23574;BME280;11965;53.640;10.050;2022-11-15T03:11:14;100907.75;;;2.78;100.00
23574;BME280;11965;53.640;10.050;2022-11-15T03:17:29;100907.16;;;2.65;100.00
23574;BME280;11965;53.640;10.050;2022-11-15T03:20:17;100901.69;;;2.65;100.00
23574;BME280;11965;53.640;10.050;2022-11-15T03:23:08;100920.84;;;2.65;100.00
23574;BME280;11965;53.640;10.050;2022-11-15T03:25:57;100906.59;;;2.61;100.00
23574;BME280;11965;53.640;10.050;2022-11-15T03:29:03;100912.34;;;2.58;100.00
23574;BME280;11965;53.640;10.050;2022-11-15T03:31:59;100916.38;;;2.54;100.00
23574;BME280;11965;53.640;10.050;2022-11-15T03:34:50;100913.19;;;2.49;100.00
23574;BME280;11965;53.640;10.050;2022-11-15T03:37:53;100915.19;;;2.47;100.00
23574;BME280;11965;53.640;10.050;2022-11-15T03:40:42;100906.97;;;2.47;100.00
23574;BME280;11965;53.640;10.050;2022-11-15T03:47:06;100899.94;;;2.45;100.00
23574;BME280;11965;53.640;10.050;2022-11-15T03:49:58;100893.47;;;2.46;100.00
23574;BME280;11965;53.640;10.050;2022-11-15T03:52:48;100899.78;;;2.46;100.00
23574;BME280;11965;53.640;10.050;2022-11-15T03:55:33;100894.47;;;2.45;100.00
23574;BME280;11965;53.640;10.050;2022-11-15T03:58:18;100893.88;;;2.41;100.00
23574;BME280;11965;53.640;10.050;2022-11-15T04:01:02;100898.34;;;2.42;100.00
23574;BME280;11965;53.640;10.050;2022-11-15T04:03:46;100899.94;;;2.45;100.00
23574;BME280;11965;53.640;10.050;2022-11-15T04:06:30;100906.00;;;2.48;100.00
23574;BME280;11965;53.640;10.050;2022-11-15T04:09:14;100902.41;;;2.48;100.00
23574;BME280;11965;53.640;10.050;2022-11-15T04:11:58;100899.22;;;2.52;100.00
23574;BME280;11965;53.640;10.050;2022-11-15T04:14:42;100901.94;;;2.52;100.00
23574;BME280;11965;53.640;10.050;2022-11-15T04:17:49;100900.09;;;2.53;100.00
23574;BME280;11965;53.640;10.050;2022-11-15T04:20:34;100892.03;;;2.51;100.00
23574;BME280;11965;53.640;10.050;2022-11-15T04:23:37;100894.63;;;2.53;100.00
23574;BME280;11965;53.640;10.050;2022-11-15T04:26:50;100895.50;;;2.53;100.00
23574;BME280;11965;53.640;10.050;2022-11-15T04:29:34;100896.91;;;2.57;100.00
23574;BME280;11965;53.640;10.050;2022-11-15T04:32:19;100895.81;;;2.70;100.00
23574;BME280;11965;53.640;10.050;2022-11-15T04:35:03;100895.50;;;2.73;100.00
23574;BME280;11965;53.640;10.050;2022-11-15T04:37:47;100887.16;;;2.74;100.00
23574;BME280;11965;53.640;10.050;2022-11-15T04:40:31;100901.13;;;2.81;100.00
23574;BME280;11965;53.640;10.050;2022-11-15T04:43:16;100904.31;;;2.86;100.00
23574;BME280;11965;53.640;10.050;2022-11-15T04:46:00;100905.19;;;2.96;100.00
23574;BME280;11965;53.640;10.050;2022-11-15T04:48:44;100909.66;;;3.07;100.00
23574;BME280;11965;53.640;10.050;2022-11-15T04:51:28;100911.22;;;3.09;100.00
23574;BME280;11965;53.640;10.050;2022-11-15T04:54:12;100907.91;;;3.06;100.00
23574;BME280;11965;53.640;10.050;2022-11-15T04:56:56;100915.69;;;3.10;100.00
23574;BME280;11965;53.640;10.050;2022-11-15T04:59:40;100903.28;;;3.16;100.00
23574;BME280;11965;53.640;10.050;2022-11-15T05:02:24;100903.88;;;3.20;100.00
23574;BME280;11965;53.640;10.050;2022-11-15T05:05:29;100906.00;;;3.36;100.00
23574;BME280;11965;53.640;10.050;2022-11-15T05:08:13;100904.97;;;3.46;100.00
23574;BME280;11965;53.640;10.050;2022-11-15T05:10:57;100898.03;;;3.62;100.00
23574;BME280;11965;53.640;10.050;2022-11-15T05:13:41;100899.72;;;3.72;100.00
23574;BME280;11965;53.640;10.050;2022-11-15T05:16:26;100897.69;;;3.84;100.00
23574;BME280;11965;53.640;10.050;2022-11-15T05:19:10;100898.34;;;3.96;100.00
23574;BME280;11965;53.640;10.050;2022-11-15T05:21:54;100900.16;;;4.05;100.00
23574;BME280;11965;53.640;10.050;2022-11-15T05:24:38;100892.22;;;4.12;100.00
23574;BME280;11965;53.640;10.050;2022-11-15T05:27:22;100892.88;;;4.24;100.00
23574;BME280;11965;53.640;10.050;2022-11-15T05:30:07;100886.31;;;4.34;100.00
23574;BME280;11965;53.640;10.050;2022-11-15T05:32:51;100882.78;;;4.42;100.00
23574;BME280;11965;53.640;10.050;2022-11-15T05:35:40;100882.66;;;4.43;100.00
23574;BME280;11965;53.640;10.050;2022-11-15T05:38:25;100885.50;;;4.52;100.00
23574;BME280;11965;53.640;10.050;2022-11-15T05:41:11;100881.09;;;4.59;100.00
23574;BME280;11965;53.640;10.050;2022-11-15T05:43:56;100880.00;;;4.70;100.00
23574;BME280;11965;53.640;10.050;2022-11-15T05:46:43;100882.69;;;4.79;100.00
23574;BME280;11965;53.640;10.050;2022-11-15T05:49:31;100886.22;;;4.90;100.00
23574;BME280;11965;53.640;10.050;2022-11-15T05:52:23;100892.78;;;4.97;100.00
23574;BME280;11965;53.640;10.050;2022-11-15T05:55:09;100879.47;;;5.02;100.00
23574;BME280;11965;53.640;10.050;2022-11-15T05:57:54;100879.84;;;5.07;100.00
23574;BME280;11965;53.640;10.050;2022-11-15T06:00:39;100878.03;;;5.16;100.00
23574;BME280;11965;53.640;10.050;2022-11-15T06:03:23;100878.59;;;5.19;100.00
23574;BME280;11965;53.640;10.050;2022-11-15T06:06:07;100881.22;;;5.29;100.00
23574;BME280;11965;53.640;10.050;2022-11-15T06:08:51;100886.91;;;5.27;100.00
23574;BME280;11965;53.640;10.050;2022-11-15T06:11:35;100884.69;;;5.31;100.00
23574;BME280;11965;53.640;10.050;2022-11-15T06:14:20;100886.97;;;5.36;100.00
23574;BME280;11965;53.640;10.050;2022-11-15T06:17:04;100891.09;;;5.40;100.00
23574;BME280;11965;53.640;10.050;2022-11-15T06:19:48;100896.66;;;5.48;100.00
23574;BME280;11965;53.640;10.050;2022-11-15T06:22:32;100898.63;;;5.56;100.00
23574;BME280;11965;53.640;10.050;2022-11-15T06:25:16;100896.91;;;5.54;100.00
23574;BME280;11965;53.640;10.050;2022-11-15T06:28:00;100896.03;;;5.54;100.00
23574;BME280;11965;53.640;10.050;2022-11-15T06:30:45;100903.97;;;5.57;100.00
23574;BME280;11965;53.640;10.050;2022-11-15T06:33:29;100893.69;;;5.59;100.00
23574;BME280;11965;53.640;10.050;2022-11-15T06:36:13;100901.28;;;5.65;100.00
23574;BME280;11965;53.640;10.050;2022-11-15T06:39:00;100908.47;;;5.66;100.00
23574;BME280;11965;53.640;10.050;2022-11-15T06:41:44;100898.91;;;5.70;100.00
23574;BME280;11965;53.640;10.050;2022-11-15T06:44:28;100896.69;;;5.74;100.00
23574;BME280;11965;53.640;10.050;2022-11-15T06:47:12;100904.59;;;5.77;100.00
23574;BME280;11965;53.640;10.050;2022-11-15T06:49:57;100913.09;;;5.84;100.00
23574;BME280;11965;53.640;10.050;2022-11-15T06:52:41;100913.22;;;5.82;100.00
23574;BME280;11965;53.640;10.050;2022-11-15T06:55:25;100907.97;;;5.89;100.00
23574;BME280;11965;53.640;10.050;2022-11-15T06:58:09;100904.72;;;5.93;100.00
23574;BME280;11965;53.640;10.050;2022-11-15T07:00:57;100909.34;;;5.93;100.00
23574;BME280;11965;53.640;10.050;2022-11-15T07:03:42;100914.41;;;5.97;100.00
23574;BME280;11965;53.640;10.050;2022-11-15T07:06:26;100914.41;;;5.97;100.00
23574;BME280;11965;53.640;10.050;2022-11-15T07:09:10;100916.66;;;6.02;100.00
23574;BME280;11965;53.640;10.050;2022-11-15T07:11:55;100920.09;;;6.04;100.00
23574;BME280;11965;53.640;10.050;2022-11-15T07:14:39;100923.41;;;6.08;100.00
23574;BME280;11965;53.640;10.050;2022-11-15T07:17:23;100929.09;;;6.14;100.00
23574;BME280;11965;53.640;10.050;2022-11-15T07:20:08;100925.00;;;6.18;100.00
23574;BME280;11965;53.640;10.050;2022-11-15T07:22:59;100931.19;;;6.20;100.00
23574;BME280;11965;53.640;10.050;2022-11-15T07:25:45;100925.75;;;6.29;100.00
23574;BME280;11965;53.640;10.050;2022-11-15T07:28:29;100925.41;;;6.32;100.00
23574;BME280;11965;53.640;10.050;2022-11-15T07:31:13;100923.69;;;6.39;100.00
23574;BME280;11965;53.640;10.050;2022-11-15T07:33:57;100929.41;;;6.37;100.00
23574;BME280;11965;53.640;10.050;2022-11-15T07:36:42;100926.69;;;6.46;100.00
23574;BME280;11965;53.640;10.050;2022-11-15T07:39:26;100929.13;;;6.57;100.00
23574;BME280;11965;53.640;10.050;2022-11-15T07:42:11;100935.69;;;6.64;100.00
23574;BME280;11965;53.640;10.050;2022-11-15T07:45:14;100928.66;;;6.70;100.00
23574;BME280;11965;53.640;10.050;2022-11-15T07:47:59;100935.34;;;6.67;100.00
23574;BME280;11965;53.640;10.050;2022-11-15T07:50:43;100931.75;;;6.67;100.00
23574;BME280;11965;53.640;10.050;2022-11-15T07:53:27;100935.69;;;6.64;100.00
23574;BME280;11965;53.640;10.050;2022-11-15T07:56:11;100932.41;;;6.69;100.00
23574;BME280;11965;53.640;10.050;2022-11-15T07:58:56;100933.47;;;6.68;100.00
23574;BME280;11965;53.640;10.050;2022-11-15T08:01:41;100928.44;;;6.63;100.00
23574;BME280;11965;53.640;10.050;2022-11-15T08:04:25;100929.31;;;6.63;100.00
23574;BME280;11965;53.640;10.050;2022-11-15T08:07:09;100929.66;;;6.69;100.00
23574;BME280;11965;53.640;10.050;2022-11-15T08:09:53;100930.03;;;6.74;100.00
23574;BME280;11965;53.640;10.050;2022-11-15T08:12:39;100912.31;;;6.84;100.00
23574;BME280;11965;53.640;10.050;2022-11-15T08:15:23;100920.44;;;6.94;100.00
23574;BME280;11965;53.640;10.050;2022-11-15T08:18:13;100924.03;;;6.86;100.00
23574;BME280;11965;53.640;10.050;2022-11-15T08:21:00;100914.41;;;6.82;100.00
23574;BME280;11965;53.640;10.050;2022-11-15T08:23:44;100921.44;;;6.85;100.00
23574;BME280;11965;53.640;10.050;2022-11-15T08:26:29;100920.59;;;6.93;100.00
23574;BME280;11965;53.640;10.050;2022-11-15T08:29:13;100913.88;;;6.95;100.00
23574;BME280;11965;53.640;10.050;2022-11-15T08:31:58;100919.59;;;6.94;100.00
23574;BME280;11965;53.640;10.050;2022-11-15T08:34:42;100909.59;;;7.01;100.00
23574;BME280;11965;53.640;10.050;2022-11-15T08:37:26;100910.78;;;6.98;100.00
23574;BME280;11965;53.640;10.050;2022-11-15T08:40:10;100928.38;;;7.05;100.00
23574;BME280;11965;53.640;10.050;2022-11-15T08:42:55;100918.22;;;7.06;100.00
23574;BME280;11965;53.640;10.050;2022-11-15T08:45:39;100916.50;;;7.13;100.00
23574;BME280;11965;53.640;10.050;2022-11-15T08:48:23;100925.81;;;7.20;100.00
23574;BME280;11965;53.640;10.050;2022-11-15T08:51:07;100928.94;;;7.25;100.00
23574;BME280;11965;53.640;10.050;2022-11-15T08:53:51;100927.91;;;7.35;100.00
23574;BME280;11965;53.640;10.050;2022-11-15T08:56:36;100924.63;;;7.31;100.00
23574;BME280;11965;53.640;10.050;2022-11-15T08:59:20;100939.28;;;7.40;100.00
23574;BME280;11965;53.640;10.050;2022-11-15T09:02:04;100926.19;;;7.50;100.00
23574;BME280;11965;53.640;10.050;2022-11-15T09:04:49;100929.09;;;7.57;100.00
23574;BME280;11965;53.640;10.050;2022-11-15T09:07:33;100938.06;;;7.59;100.00
23574;BME280;11965;53.640;10.050;2022-11-15T09:10:17;100935.31;;;7.50;100.00
23574;BME280;11965;53.640;10.050;2022-11-15T09:13:02;100932.56;;;7.59;100.00
23574;BME280;11965;53.640;10.050;2022-11-15T09:15:46;100926.84;;;7.60;100.00
23574;BME280;11965;53.640;10.050;2022-11-15T09:18:31;100921.84;;;7.72;100.00
23574;BME280;11965;53.640;10.050;2022-11-15T09:21:16;100927.53;;;7.70;100.00
23574;BME280;11965;53.640;10.050;2022-11-15T09:24:00;100922.38;;;7.67;100.00
23574;BME280;11965;53.640;10.050;2022-11-15T09:26:44;100931.69;;;7.74;100.00
23574;BME280;11965;53.640;10.050;2022-11-15T09:29:28;100930.47;;;7.69;100.00
23574;BME280;11965;53.640;10.050;2022-11-15T09:32:12;100934.78;;;7.71;100.00
23574;BME280;11965;53.640;10.050;2022-11-15T09:34:57;100931.84;;;7.73;100.00
23574;BME280;11965;53.640;10.050;2022-11-15T09:37:41;100927.16;;;7.82;100.00
23574;BME280;11965;53.640;10.050;2022-11-15T09:40:26;100922.50;;;7.90;100.00
23574;BME280;11965;53.640;10.050;2022-11-15T09:43:27;100923.88;;;7.94;100.00
23574;BME280;11965;53.640;10.050;2022-11-15T09:49:16;100927.22;;;8.29;100.00
23574;BME280;11965;53.640;10.050;2022-11-15T09:51:54;100919.81;;;8.22;100.00
23574;BME280;11965;53.640;10.050;2022-11-15T09:54:41;100927.75;;;8.33;100.00
23574;BME280;11965;53.640;10.050;2022-11-15T09:57:12;100918.41;;;8.34;100.00
23574;BME280;11965;53.640;10.050;2022-11-15T09:59:58;100921.66;;;8.37;100.00
23574;BME280;11965;53.640;10.050;2022-11-15T10:02:59;100927.19;;;8.46;100.00
23574;BME280;11965;53.640;10.050;2022-11-15T10:05:28;100929.53;;;8.65;100.00
23574;BME280;11965;53.640;10.050;2022-11-15T10:08:06;100921.59;;;8.62;100.00
23574;BME280;11965;53.640;10.050;2022-11-15T10:13:21;100918.09;;;8.76;100.00
23574;BME280;11965;53.640;10.050;2022-11-15T10:15:49;100919.16;;;8.67;100.00
23574;BME280;11965;53.640;10.050;2022-11-15T10:23:18;100915.06;;;8.86;100.00
23574;BME280;11965;53.640;10.050;2022-11-15T10:25:45;100903.66;;;8.89;100.00
23574;BME280;11965;53.640;10.050;2022-11-15T10:28:17;100902.75;;;8.97;100.00
23574;BME280;11965;53.640;10.050;2022-11-15T10:30:49;100898.69;;;9.07;100.00
23574;BME280;11965;53.640;10.050;2022-11-15T10:33:33;100897.97;;;9.14;100.00
23574;BME280;11965;53.640;10.050;2022-11-15T10:41:13;100884.97;;;9.37;100.00
23574;BME280;11965;53.640;10.050;2022-11-15T10:43:39;100873.59;;;9.32;100.00
23574;BME280;11965;53.640;10.050;2022-11-15T10:46:23;100874.50;;;9.33;100.00
23574;BME280;11965;53.640;10.050;2022-11-15T10:48:50;100871.41;;;9.27;100.00
23574;BME280;11965;53.640;10.050;2022-11-15T10:51:48;100872.09;;;9.29;100.00
23574;BME280;11965;53.640;10.050;2022-11-15T10:54:34;100874.97;;;9.36;100.00
23574;BME280;11965;53.640;10.050;2022-11-15T10:57:16;100875.28;;;9.41;100.00
23574;BME280;11965;53.640;10.050;2022-11-15T10:59:48;100868.44;;;9.52;100.00
23574;BME280;11965;53.640;10.050;2022-11-15T11:04:54;100859.19;;;9.60;100.00
23574;BME280;11965;53.640;10.050;2022-11-15T11:07:23;100856.97;;;9.55;100.00
23574;BME280;11965;53.640;10.050;2022-11-15T11:09:58;100866.91;;;9.64;100.00
23574;BME280;11965;53.640;10.050;2022-11-15T11:12:28;100857.41;;;9.82;100.00
23574;BME280;11965;53.640;10.050;2022-11-15T11:14:55;100849.28;;;9.80;100.00
23574;BME280;11965;53.640;10.050;2022-11-15T11:18:05;100859.31;;;9.81;100.00
23574;BME280;11965;53.640;10.050;2022-11-15T11:23:38;100849.28;;;9.80;100.00
23574;BME280;11965;53.640;10.050;2022-11-15T11:34:41;100843.75;;;9.95;100.00
23574;BME280;11965;53.640;10.050;2022-11-15T11:43:08;100825.44;;;9.94;100.00
23574;BME280;11965;53.640;10.050;2022-11-15T11:48:47;100822.66;;;10.09;100.00
23574;BME280;11965;53.640;10.050;2022-11-15T11:51:34;100820.25;;;10.21;100.00
23574;BME280;11965;53.640;10.050;2022-11-15T11:54:14;100819.22;;;10.22;100.00
23574;BME280;11965;53.640;10.050;2022-11-15T11:56:44;100819.38;;;10.20;100.00
23574;BME280;11965;53.640;10.050;2022-11-15T11:59:32;100812.13;;;10.19;100.00
23574;BME280;11965;53.640;10.050;2022-11-15T12:02:21;100804.50;;;10.21;100.00
23574;BME280;11965;53.640;10.050;2022-11-15T12:04:57;100808.72;;;10.32;100.00
23574;BME280;11965;53.640;10.050;2022-11-15T12:07:34;100809.00;;;10.37;100.00
23574;BME280;11965;53.640;10.050;2022-11-15T12:10:23;100812.50;;;10.46;100.00
23574;BME280;11965;53.640;10.050;2022-11-15T12:12:58;100816.91;;;10.40;100.00
23574;BME280;11965;53.640;10.050;2022-11-15T12:15:36;100808.41;;;10.42;100.00
23574;BME280;11965;53.640;10.050;2022-11-15T12:18:08;100804.94;;;10.39;100.00
23574;BME280;11965;53.640;10.050;2022-11-15T12:20:47;100803.06;;;10.40;100.00
23574;BME280;11965;53.640;10.050;2022-11-15T12:23:31;100788.41;;;10.46;100.00
23574;BME280;11965;53.640;10.050;2022-11-15T12:26:02;100789.53;;;10.52;100.00
23574;BME280;11965;53.640;10.050;2022-11-15T12:31:13;100785.06;;;10.51;100.00
23574;BME280;11965;53.640;10.050;2022-11-15T12:33:44;100786.25;;;10.63;100.00
23574;BME280;11965;53.640;10.050;2022-11-15T12:36:33;100777.53;;;10.66;100.00
23574;BME280;11965;53.640;10.050;2022-11-15T12:41:36;100778.78;;;10.85;100.00
23574;BME280;11965;53.640;10.050;2022-11-15T12:44:03;100781.31;;;10.80;100.00
23574;BME280;11965;53.640;10.050;2022-11-15T12:52:03;100783.88;;;10.81;100.00
23574;BME280;11965;53.640;10.050;2022-11-15T12:59:56;100765.41;;;10.89;100.00
23574;BME280;11965;53.640;10.050;2022-11-15T13:02:26;100771.59;;;10.69;100.00
23574;BME280;11965;53.640;10.050;2022-11-15T13:04:55;100759.59;;;10.62;100.00
23574;BME280;11965;53.640;10.050;2022-11-15T13:17:44;100749.81;;;10.66;100.00
23574;BME280;11965;53.640;10.050;2022-11-15T13:27:52;100739.47;;;10.53;100.00
23574;BME280;11965;53.640;10.050;2022-11-15T13:30:29;100736.72;;;10.53;100.00
23574;BME280;11965;53.640;10.050;2022-11-15T13:33:00;100742.88;;;10.55;100.00
23574;BME280;11965;53.640;10.050;2022-11-15T13:35:34;100732.28;;;10.59;100.00
23574;BME280;11965;53.640;10.050;2022-11-15T13:38:04;100728.63;;;10.58;100.00
23574;BME280;11965;53.640;10.050;2022-11-15T13:40:36;100734.84;;;10.60;100.00
23574;BME280;11965;53.640;10.050;2022-11-15T13:43:34;100731.63;;;10.57;100.00
23574;BME280;11965;53.640;10.050;2022-11-15T13:46:15;100730.38;;;10.59;100.00
23574;BME280;11965;53.640;10.050;2022-11-15T13:48:42;100719.28;;;10.59;100.00
23574;BME280;11965;53.640;10.050;2022-11-15T13:51:27;100715.41;;;10.54;100.00
23574;BME280;11965;53.640;10.050;2022-11-15T13:56:34;100703.31;;;10.61;100.00
23574;BME280;11965;53.640;10.050;2022-11-15T13:59:09;100702.91;;;10.65;100.00
23574;BME280;11965;53.640;10.050;2022-11-15T14:01:35;100703.69;;;10.58;100.00
23574;BME280;11965;53.640;10.050;2022-11-15T14:04:02;100700.91;;;10.58;100.00
23574;BME280;11965;53.640;10.050;2022-11-15T14:06:30;100702.66;;;10.59;100.00
23574;BME280;11965;53.640;10.050;2022-11-15T14:11:37;100703.31;;;10.61;100.00
23574;BME280;11965;53.640;10.050;2022-11-15T14:14:14;100704.09;;;10.55;100.00
23574;BME280;11965;53.640;10.050;2022-11-15T14:16:46;100710.53;;;10.56;100.00
23574;BME280;11965;53.640;10.050;2022-11-15T14:22:09;100705.16;;;10.54;100.00
23574;BME280;11965;53.640;10.050;2022-11-15T14:24:35;100711.78;;;10.53;100.00
23574;BME280;11965;53.640;10.050;2022-11-15T14:27:24;100701.94;;;10.51;100.00
23574;BME280;11965;53.640;10.050;2022-11-15T14:29:51;100692.03;;;10.42;100.00
23574;BME280;11965;53.640;10.050;2022-11-15T14:32:25;100693.28;;;10.39;100.00
23574;BME280;11965;53.640;10.050;2022-11-15T14:35:00;100684.31;;;10.37;100.00
23574;BME280;11965;53.640;10.050;2022-11-15T14:37:28;100683.00;;;10.33;100.00
23574;BME280;11965;53.640;10.050;2022-11-15T14:39:56;100692.94;;;10.27;100.00
23574;BME280;11965;53.640;10.050;2022-11-15T14:42:23;100693.63;;;10.29;100.00
23574;BME280;11965;53.640;10.050;2022-11-15T14:44:49;100699.03;;;10.23;100.00
23574;BME280;11965;53.640;10.050;2022-11-15T14:47:15;100700.69;;;10.17;100.00
23574;BME280;11965;53.640;10.050;2022-11-15T14:49:41;100694.19;;;10.10;100.00
23574;BME280;11965;53.640;10.050;2022-11-15T14:52:23;100704.34;;;10.03;100.00
23574;BME280;11965;53.640;10.050;2022-11-15T14:54:50;100701.31;;;9.98;100.00
23574;BME280;11965;53.640;10.050;2022-11-15T14:57:15;100697.47;;;9.99;100.00
23574;BME280;11965;53.640;10.050;2022-11-15T14:59:41;100702.28;;;9.90;100.00
23574;BME280;11965;53.640;10.050;2022-11-15T15:02:26;100695.22;;;9.87;100.00
23574;BME280;11965;53.640;10.050;2022-11-15T15:04:53;100695.72;;;9.76;100.00
23574;BME280;11965;53.640;10.050;2022-11-15T15:07:19;100690.75;;;9.71;100.00
23574;BME280;11965;53.640;10.050;2022-11-15T15:09:46;100685.63;;;9.68;100.00
23574;BME280;11965;53.640;10.050;2022-11-15T15:12:20;100689.81;;;9.64;100.00
23574;BME280;11965;53.640;10.050;2022-11-15T15:14:48;100688.88;;;9.57;100.00
23574;BME280;11965;53.640;10.050;2022-11-15T15:17:14;100686.22;;;9.49;100.00
23574;BME280;11965;53.640;10.050;2022-11-15T15:19:41;100685.72;;;9.45;100.00
23574;BME280;11965;53.640;10.050;2022-11-15T15:22:14;100691.84;;;9.41;100.00
23574;BME280;11965;53.640;10.050;2022-11-15T15:24:41;100688.50;;;9.31;100.00
23574;BME280;11965;53.640;10.050;2022-11-15T15:27:08;100688.22;;;9.25;100.00
23574;BME280;11965;53.640;10.050;2022-11-15T15:29:33;100686.28;;;9.26;100.00
23574;BME280;11965;53.640;10.050;2022-11-15T15:31:59;100691.16;;;9.24;100.00
23574;BME280;11965;53.640;10.050;2022-11-15T15:34:25;100685.81;;;9.22;100.00
23574;BME280;11965;53.640;10.050;2022-11-15T15:37:07;100690.00;;;9.18;100.00
23574;BME280;11965;53.640;10.050;2022-11-15T15:39:32;100685.91;;;9.14;100.00
23574;BME280;11965;53.640;10.050;2022-11-15T15:41:58;100693.06;;;9.09;100.00
23574;BME280;11965;53.640;10.050;2022-11-15T15:44:24;100689.72;;;8.98;100.00